createdAt,value
2024-03-23T00:08:49.177Z,56.9
2024-03-23T00:38:50.018Z,57
2024-03-23T01:08:50.457Z,57.1
2024-03-23T01:38:51.486Z,57.2
2024-03-23T02:08:51.890Z,57.2
2024-03-23T02:38:52.335Z,57.1
2024-03-23T03:08:52.773Z,57.2
2024-03-23T03:38:53.242Z,57.3
2024-03-23T04:08:53.672Z,57.3
2024-03-23T04:38:54.148Z,57.4
2024-03-23T05:39:05.318Z,57.5
2024-03-23T06:39:16.591Z,57.3
2024-03-23T07:09:17.008Z,57.2
2024-03-23T07:39:17.433Z,57.1
2024-03-23T08:09:18.262Z,57.1
2024-03-23T08:39:21.370Z,57.2
2024-03-23T09:09:29.001Z,56.8
2024-03-23T09:39:29.442Z,56.6
2024-03-23T10:09:29.854Z,56.5
2024-03-23T10:39:30.283Z,56.5
2024-03-23T11:09:30.713Z,56.4
2024-03-23T11:39:31.160Z,56.4
2024-03-23T12:09:31.605Z,56.4
2024-03-23T13:09:42.535Z,56.7
2024-03-23T14:09:57.016Z,56.8
2024-03-23T14:39:57.749Z,56.5
2024-03-23T15:09:58.186Z,56.4
2024-03-23T15:39:59.021Z,56.3
2024-03-23T16:09:59.449Z,56.4
2024-03-23T16:39:59.910Z,56.5
2024-03-23T17:10:00.477Z,56.3
2024-03-23T17:40:00.932Z,56.4
2024-03-23T18:10:01.373Z,56.3
2024-03-23T18:40:01.851Z,56.1
2024-03-23T19:40:12.741Z,56
2024-03-23T20:40:24.128Z,55.9
2024-03-23T21:10:24.691Z,55.8
2024-03-23T21:40:25.316Z,55.7
2024-03-23T22:10:26.189Z,55.7
2024-03-23T22:40:26.606Z,55.6
2024-03-23T23:10:27.110Z,55.5
2024-03-23T23:40:27.541Z,55.4
